sensor_id;sensor_type;location;lat;lon;timestamp;P1;durP1;ratioP1;P2;durP2;ratioP2
23720;SDS011;42950;52.134;5.578;2023-04-27T00:00:43;11.27;;;8.40;;
23720;SDS011;42950;52.134;5.578;2023-04-27T00:03:09;13.85;;;8.30;;
23720;SDS011;42950;52.134;5.578;2023-04-27T00:05:36;11.95;;;8.35;;
23720;SDS011;42950;52.134;5.578;2023-04-27T00:08:06;10.77;;;7.47;;
23720;SDS011;42950;52.134;5.578;2023-04-27T00:10:32;10.07;;;7.13;;
23720;SDS011;42950;52.134;5.578;2023-04-27T00:12:58;10.70;;;7.35;;
23720;SDS011;42950;52.134;5.578;2023-04-27T00:15:24;10.57;;;7.90;;
23720;SDS011;42950;52.134;5.578;2023-04-27T00:17:50;8.50;;;7.10;;
23720;SDS011;42950;52.134;5.578;2023-04-27T00:20:16;9.60;;;7.68;;
23720;SDS011;42950;52.134;5.578;2023-04-27T00:22:42;10.98;;;7.68;;
23720;SDS011;42950;52.134;5.578;2023-04-27T00:25:08;13.02;;;7.80;;
23720;SDS011;42950;52.134;5.578;2023-04-27T00:27:34;12.82;;;7.57;;
23720;SDS011;42950;52.134;5.578;2023-04-27T00:30:01;12.27;;;7.78;;
23720;SDS011;42950;52.134;5.578;2023-04-27T00:32:27;11.32;;;7.30;;
23720;SDS011;42950;52.134;5.578;2023-04-27T00:34:52;11.07;;;7.13;;
23720;SDS011;42950;52.134;5.578;2023-04-27T00:37:18;10.50;;;7.28;;
23720;SDS011;42950;52.134;5.578;2023-04-27T00:39:44;9.18;;;7.55;;
23720;SDS011;42950;52.134;5.578;2023-04-27T00:42:09;9.23;;;7.53;;
23720;SDS011;42950;52.134;5.578;2023-04-27T00:44:39;10.40;;;7.55;;
23720;SDS011;42950;52.134;5.578;2023-04-27T00:47:05;12.07;;;7.88;;
23720;SDS011;42950;52.134;5.578;2023-04-27T00:49:31;12.52;;;8.15;;
23720;SDS011;42950;52.134;5.578;2023-04-27T00:51:57;9.00;;;7.63;;
23720;SDS011;42950;52.134;5.578;2023-04-27T00:54:25;10.95;;;7.70;;
23720;SDS011;42950;52.134;5.578;2023-04-27T00:56:51;13.82;;;8.30;;
23720;SDS011;42950;52.134;5.578;2023-04-27T00:59:17;11.93;;;8.27;;
23720;SDS011;42950;52.134;5.578;2023-04-27T01:01:44;12.23;;;8.25;;
23720;SDS011;42950;52.134;5.578;2023-04-27T01:04:11;12.90;;;7.75;;
23720;SDS011;42950;52.134;5.578;2023-04-27T01:06:36;10.93;;;8.18;;
23720;SDS011;42950;52.134;5.578;2023-04-27T01:09:03;11.10;;;8.05;;
23720;SDS011;42950;52.134;5.578;2023-04-27T01:11:31;16.63;;;8.77;;
23720;SDS011;42950;52.134;5.578;2023-04-27T01:13:57;11.68;;;7.72;;
23720;SDS011;42950;52.134;5.578;2023-04-27T01:16:28;11.90;;;7.70;;
23720;SDS011;42950;52.134;5.578;2023-04-27T01:18:53;10.63;;;8.10;;
23720;SDS011;42950;52.134;5.578;2023-04-27T01:21:19;10.27;;;7.97;;
23720;SDS011;42950;52.134;5.578;2023-04-27T01:23:45;9.68;;;7.40;;
23720;SDS011;42950;52.134;5.578;2023-04-27T01:26:11;8.93;;;7.30;;
23720;SDS011;42950;52.134;5.578;2023-04-27T01:28:40;11.07;;;7.60;;
23720;SDS011;42950;52.134;5.578;2023-04-27T01:31:06;10.57;;;7.30;;
23720;SDS011;42950;52.134;5.578;2023-04-27T01:33:32;11.57;;;7.60;;
23720;SDS011;42950;52.134;5.578;2023-04-27T01:35:58;9.57;;;7.13;;
23720;SDS011;42950;52.134;5.578;2023-04-27T01:38:24;8.88;;;7.00;;
23720;SDS011;42950;52.134;5.578;2023-04-27T01:40:50;11.65;;;7.25;;
23720;SDS011;42950;52.134;5.578;2023-04-27T01:43:15;9.02;;;7.05;;
23720;SDS011;42950;52.134;5.578;2023-04-27T01:48:09;12.10;;;6.85;;
23720;SDS011;42950;52.134;5.578;2023-04-27T01:50:35;9.35;;;6.40;;
23720;SDS011;42950;52.134;5.578;2023-04-27T01:53:01;8.52;;;6.78;;
23720;SDS011;42950;52.134;5.578;2023-04-27T01:55:27;13.10;;;6.70;;
23720;SDS011;42950;52.134;5.578;2023-04-27T01:57:55;12.27;;;7.47;;
23720;SDS011;42950;52.134;5.578;2023-04-27T02:00:21;10.75;;;7.18;;
23720;SDS011;42950;52.134;5.578;2023-04-27T02:02:46;12.02;;;7.45;;
23720;SDS011;42950;52.134;5.578;2023-04-27T02:05:15;10.65;;;7.40;;
23720;SDS011;42950;52.134;5.578;2023-04-27T02:07:40;9.48;;;7.28;;
23720;SDS011;42950;52.134;5.578;2023-04-27T02:10:06;10.65;;;8.00;;
23720;SDS011;42950;52.134;5.578;2023-04-27T02:12:32;10.38;;;7.63;;
23720;SDS011;42950;52.134;5.578;2023-04-27T02:14:58;14.30;;;7.32;;
23720;SDS011;42950;52.134;5.578;2023-04-27T02:17:23;11.18;;;7.45;;
23720;SDS011;42950;52.134;5.578;2023-04-27T02:19:49;11.05;;;7.40;;
23720;SDS011;42950;52.134;5.578;2023-04-27T02:22:14;10.00;;;7.18;;
23720;SDS011;42950;52.134;5.578;2023-04-27T02:24:41;8.93;;;7.57;;
23720;SDS011;42950;52.134;5.578;2023-04-27T02:27:07;13.38;;;7.68;;
23720;SDS011;42950;52.134;5.578;2023-04-27T02:29:32;11.90;;;7.13;;
23720;SDS011;42950;52.134;5.578;2023-04-27T02:32:01;10.05;;;6.57;;
23720;SDS011;42950;52.134;5.578;2023-04-27T02:34:27;7.85;;;6.32;;
23720;SDS011;42950;52.134;5.578;2023-04-27T02:36:52;10.65;;;6.95;;
23720;SDS011;42950;52.134;5.578;2023-04-27T02:39:20;8.48;;;7.05;;
23720;SDS011;42950;52.134;5.578;2023-04-27T02:41:46;12.25;;;7.00;;
23720;SDS011;42950;52.134;5.578;2023-04-27T02:44:11;11.10;;;6.95;;
23720;SDS011;42950;52.134;5.578;2023-04-27T02:46:37;9.55;;;6.88;;
23720;SDS011;42950;52.134;5.578;2023-04-27T02:49:03;9.55;;;6.88;;
23720;SDS011;42950;52.134;5.578;2023-04-27T02:51:28;8.45;;;6.57;;
23720;SDS011;42950;52.134;5.578;2023-04-27T02:53:54;9.93;;;7.63;;
23720;SDS011;42950;52.134;5.578;2023-04-27T02:56:20;9.95;;;6.70;;
23720;SDS011;42950;52.134;5.578;2023-04-27T02:58:46;10.40;;;6.93;;
23720;SDS011;42950;52.134;5.578;2023-04-27T03:01:12;10.68;;;6.93;;
23720;SDS011;42950;52.134;5.578;2023-04-27T03:03:39;11.23;;;7.47;;
23720;SDS011;42950;52.134;5.578;2023-04-27T03:06:05;13.82;;;7.28;;
23720;SDS011;42950;52.134;5.578;2023-04-27T03:08:31;14.00;;;7.43;;
23720;SDS011;42950;52.134;5.578;2023-04-27T03:10:56;10.00;;;6.70;;
23720;SDS011;42950;52.134;5.578;2023-04-27T03:13:22;8.63;;;7.18;;
23720;SDS011;42950;52.134;5.578;2023-04-27T03:15:48;11.23;;;7.40;;
23720;SDS011;42950;52.134;5.578;2023-04-27T03:18:14;10.35;;;7.07;;
23720;SDS011;42950;52.134;5.578;2023-04-27T03:20:40;10.27;;;6.82;;
23720;SDS011;42950;52.134;5.578;2023-04-27T03:23:06;11.88;;;7.05;;
23720;SDS011;42950;52.134;5.578;2023-04-27T03:25:31;10.23;;;7.05;;
23720;SDS011;42950;52.134;5.578;2023-04-27T03:27:57;9.95;;;6.70;;
23720;SDS011;42950;52.134;5.578;2023-04-27T03:30:22;14.23;;;7.55;;
23720;SDS011;42950;52.134;5.578;2023-04-27T03:32:48;12.38;;;7.00;;
23720;SDS011;42950;52.134;5.578;2023-04-27T03:35:14;12.48;;;7.18;;
23720;SDS011;42950;52.134;5.578;2023-04-27T03:37:39;9.30;;;6.93;;
23720;SDS011;42950;52.134;5.578;2023-04-27T03:40:05;9.70;;;7.05;;
23720;SDS011;42950;52.134;5.578;2023-04-27T03:42:32;10.32;;;7.10;;
23720;SDS011;42950;52.134;5.578;2023-04-27T03:44:57;11.32;;;7.18;;
23720;SDS011;42950;52.134;5.578;2023-04-27T03:47:23;12.13;;;7.63;;
23720;SDS011;42950;52.134;5.578;2023-04-27T03:49:48;12.88;;;7.45;;
23720;SDS011;42950;52.134;5.578;2023-04-27T03:52:14;14.23;;;7.97;;
23720;SDS011;42950;52.134;5.578;2023-04-27T03:54:41;13.00;;;8.27;;
23720;SDS011;42950;52.134;5.578;2023-04-27T03:57:06;10.88;;;8.07;;
23720;SDS011;42950;52.134;5.578;2023-04-27T03:59:33;17.50;;;8.95;;
23720;SDS011;42950;52.134;5.578;2023-04-27T04:01:59;12.95;;;9.60;;
23720;SDS011;42950;52.134;5.578;2023-04-27T04:04:24;12.93;;;9.40;;
23720;SDS011;42950;52.134;5.578;2023-04-27T04:06:50;13.45;;;9.73;;
23720;SDS011;42950;52.134;5.578;2023-04-27T04:09:17;17.10;;;9.88;;
23720;SDS011;42950;52.134;5.578;2023-04-27T04:11:43;13.20;;;9.57;;
23720;SDS011;42950;52.134;5.578;2023-04-27T04:14:09;14.43;;;9.55;;
23720;SDS011;42950;52.134;5.578;2023-04-27T04:16:35;12.70;;;9.88;;
23720;SDS011;42950;52.134;5.578;2023-04-27T04:19:00;13.25;;;8.77;;
23720;SDS011;42950;52.134;5.578;2023-04-27T04:21:27;16.75;;;9.32;;
23720;SDS011;42950;52.134;5.578;2023-04-27T04:23:53;12.35;;;9.23;;
23720;SDS011;42950;52.134;5.578;2023-04-27T04:26:18;12.80;;;9.75;;
23720;SDS011;42950;52.134;5.578;2023-04-27T04:28:44;15.90;;;10.07;;
23720;SDS011;42950;52.134;5.578;2023-04-27T04:31:10;13.60;;;9.05;;
23720;SDS011;42950;52.134;5.578;2023-04-27T04:33:36;12.90;;;9.13;;
23720;SDS011;42950;52.134;5.578;2023-04-27T04:36:02;14.32;;;9.05;;
23720;SDS011;42950;52.134;5.578;2023-04-27T04:38:29;12.20;;;9.50;;
23720;SDS011;42950;52.134;5.578;2023-04-27T04:40:55;11.90;;;9.13;;
23720;SDS011;42950;52.134;5.578;2023-04-27T04:43:20;14.73;;;9.25;;
23720;SDS011;42950;52.134;5.578;2023-04-27T04:45:46;13.10;;;9.23;;
23720;SDS011;42950;52.134;5.578;2023-04-27T04:48:15;11.23;;;8.88;;
23720;SDS011;42950;52.134;5.578;2023-04-27T04:50:41;9.68;;;8.07;;
23720;SDS011;42950;52.134;5.578;2023-04-27T04:53:07;13.43;;;8.82;;
23720;SDS011;42950;52.134;5.578;2023-04-27T04:55:33;10.63;;;8.00;;
23720;SDS011;42950;52.134;5.578;2023-04-27T04:57:59;12.10;;;8.15;;
23720;SDS011;42950;52.134;5.578;2023-04-27T05:00:24;13.48;;;8.20;;
23720;SDS011;42950;52.134;5.578;2023-04-27T05:02:51;12.70;;;8.18;;
23720;SDS011;42950;52.134;5.578;2023-04-27T05:05:17;13.75;;;8.57;;
23720;SDS011;42950;52.134;5.578;2023-04-27T05:07:43;13.30;;;8.05;;
23720;SDS011;42950;52.134;5.578;2023-04-27T05:10:09;13.23;;;7.82;;
23720;SDS011;42950;52.134;5.578;2023-04-27T05:12:34;12.25;;;8.02;;
23720;SDS011;42950;52.134;5.578;2023-04-27T05:15:02;11.93;;;8.98;;
23720;SDS011;42950;52.134;5.578;2023-04-27T05:17:29;13.98;;;8.57;;
23720;SDS011;42950;52.134;5.578;2023-04-27T05:19:55;12.38;;;8.15;;
23720;SDS011;42950;52.134;5.578;2023-04-27T05:22:21;12.57;;;8.65;;
23720;SDS011;42950;52.134;5.578;2023-04-27T05:24:48;15.18;;;9.48;;
23720;SDS011;42950;52.134;5.578;2023-04-27T05:27:13;16.35;;;10.98;;
23720;SDS011;42950;52.134;5.578;2023-04-27T05:29:39;20.48;;;13.02;;
23720;SDS011;42950;52.134;5.578;2023-04-27T05:32:05;18.98;;;13.90;;
23720;SDS011;42950;52.134;5.578;2023-04-27T05:34:30;16.75;;;11.63;;
23720;SDS011;42950;52.134;5.578;2023-04-27T05:36:56;14.23;;;10.05;;
23720;SDS011;42950;52.134;5.578;2023-04-27T05:39:21;14.30;;;9.18;;
23720;SDS011;42950;52.134;5.578;2023-04-27T05:41:47;15.30;;;8.80;;
23720;SDS011;42950;52.134;5.578;2023-04-27T05:44:13;12.70;;;8.50;;
23720;SDS011;42950;52.134;5.578;2023-04-27T05:46:39;13.88;;;8.02;;
23720;SDS011;42950;52.134;5.578;2023-04-27T05:49:04;14.40;;;8.23;;
23720;SDS011;42950;52.134;5.578;2023-04-27T05:51:31;9.35;;;7.00;;
23720;SDS011;42950;52.134;5.578;2023-04-27T05:53:57;13.05;;;7.32;;
23720;SDS011;42950;52.134;5.578;2023-04-27T05:56:23;12.05;;;6.78;;
23720;SDS011;42950;52.134;5.578;2023-04-27T05:58:50;11.02;;;7.32;;
23720;SDS011;42950;52.134;5.578;2023-04-27T06:01:15;11.48;;;6.72;;
23720;SDS011;42950;52.134;5.578;2023-04-27T06:03:41;11.48;;;6.82;;
23720;SDS011;42950;52.134;5.578;2023-04-27T06:06:06;11.13;;;6.80;;
23720;SDS011;42950;52.134;5.578;2023-04-27T06:08:32;12.30;;;7.13;;
23720;SDS011;42950;52.134;5.578;2023-04-27T06:11:01;10.55;;;6.65;;
23720;SDS011;42950;52.134;5.578;2023-04-27T06:13:27;7.57;;;6.15;;
23720;SDS011;42950;52.134;5.578;2023-04-27T06:15:52;8.23;;;6.00;;
23720;SDS011;42950;52.134;5.578;2023-04-27T06:18:18;9.35;;;6.05;;
23720;SDS011;42950;52.134;5.578;2023-04-27T06:20:43;14.30;;;6.68;;
23720;SDS011;42950;52.134;5.578;2023-04-27T06:23:09;11.48;;;6.35;;
23720;SDS011;42950;52.134;5.578;2023-04-27T06:25:35;10.23;;;6.30;;
23720;SDS011;42950;52.134;5.578;2023-04-27T06:28:02;13.80;;;6.03;;
23720;SDS011;42950;52.134;5.578;2023-04-27T06:30:28;8.90;;;5.43;;
23720;SDS011;42950;52.134;5.578;2023-04-27T06:32:54;11.68;;;5.65;;
23720;SDS011;42950;52.134;5.578;2023-04-27T06:35:20;8.98;;;5.40;;
23720;SDS011;42950;52.134;5.578;2023-04-27T06:37:46;8.27;;;5.85;;
23720;SDS011;42950;52.134;5.578;2023-04-27T06:40:11;11.38;;;5.82;;
23720;SDS011;42950;52.134;5.578;2023-04-27T06:42:37;9.73;;;5.60;;
23720;SDS011;42950;52.134;5.578;2023-04-27T06:45:03;9.85;;;5.45;;
23720;SDS011;42950;52.134;5.578;2023-04-27T06:47:29;11.95;;;5.28;;
23720;SDS011;42950;52.134;5.578;2023-04-27T06:49:55;10.40;;;5.50;;
23720;SDS011;42950;52.134;5.578;2023-04-27T06:52:20;8.88;;;5.13;;
23720;SDS011;42950;52.134;5.578;2023-04-27T06:54:46;9.23;;;5.93;;
23720;SDS011;42950;52.134;5.578;2023-04-27T06:57:12;6.18;;;4.55;;
23720;SDS011;42950;52.134;5.578;2023-04-27T06:59:37;6.65;;;4.65;;
23720;SDS011;42950;52.134;5.578;2023-04-27T07:02:03;6.18;;;4.05;;
23720;SDS011;42950;52.134;5.578;2023-04-27T07:04:29;5.43;;;3.22;;
23720;SDS011;42950;52.134;5.578;2023-04-27T07:06:55;8.93;;;3.17;;
23720;SDS011;42950;52.134;5.578;2023-04-27T07:09:21;5.90;;;3.53;;
23720;SDS011;42950;52.134;5.578;2023-04-27T07:11:46;6.30;;;3.45;;
23720;SDS011;42950;52.134;5.578;2023-04-27T07:14:12;4.70;;;3.45;;
23720;SDS011;42950;52.134;5.578;2023-04-27T07:16:37;7.88;;;3.85;;
23720;SDS011;42950;52.134;5.578;2023-04-27T07:19:03;9.98;;;3.75;;
23720;SDS011;42950;52.134;5.578;2023-04-27T07:21:29;7.43;;;3.10;;
23720;SDS011;42950;52.134;5.578;2023-04-27T07:23:55;7.03;;;3.08;;
23720;SDS011;42950;52.134;5.578;2023-04-27T07:26:21;7.20;;;3.58;;
23720;SDS011;42950;52.134;5.578;2023-04-27T07:28:48;4.88;;;3.20;;
23720;SDS011;42950;52.134;5.578;2023-04-27T07:31:14;10.65;;;3.42;;
23720;SDS011;42950;52.134;5.578;2023-04-27T07:33:40;8.60;;;3.17;;
23720;SDS011;42950;52.134;5.578;2023-04-27T07:36:06;3.92;;;2.83;;
23720;SDS011;42950;52.134;5.578;2023-04-27T07:38:32;7.75;;;3.35;;
23720;SDS011;42950;52.134;5.578;2023-04-27T07:40:59;4.53;;;2.72;;
23720;SDS011;42950;52.134;5.578;2023-04-27T07:43:25;7.22;;;3.05;;
23720;SDS011;42950;52.134;5.578;2023-04-27T07:45:51;4.78;;;2.60;;
23720;SDS011;42950;52.134;5.578;2023-04-27T07:48:18;7.55;;;2.83;;
23720;SDS011;42950;52.134;5.578;2023-04-27T07:50:43;4.57;;;2.75;;
23720;SDS011;42950;52.134;5.578;2023-04-27T07:53:09;5.60;;;2.85;;
23720;SDS011;42950;52.134;5.578;2023-04-27T07:55:35;5.35;;;2.67;;
23720;SDS011;42950;52.134;5.578;2023-04-27T07:58:01;6.28;;;3.35;;
23720;SDS011;42950;52.134;5.578;2023-04-27T08:00:26;6.15;;;2.40;;
23720;SDS011;42950;52.134;5.578;2023-04-27T08:02:52;3.10;;;2.42;;
23720;SDS011;42950;52.134;5.578;2023-04-27T08:05:18;4.85;;;2.38;;
23720;SDS011;42950;52.134;5.578;2023-04-27T08:07:44;7.03;;;2.70;;
23720;SDS011;42950;52.134;5.578;2023-04-27T08:10:10;5.25;;;2.25;;
23720;SDS011;42950;52.134;5.578;2023-04-27T08:12:36;3.50;;;2.10;;
23720;SDS011;42950;52.134;5.578;2023-04-27T08:15:01;4.43;;;2.28;;
23720;SDS011;42950;52.134;5.578;2023-04-27T08:17:27;4.15;;;2.58;;
23720;SDS011;42950;52.134;5.578;2023-04-27T08:19:52;3.53;;;2.30;;
23720;SDS011;42950;52.134;5.578;2023-04-27T08:22:18;5.20;;;2.00;;
23720;SDS011;42950;52.134;5.578;2023-04-27T08:24:44;5.10;;;2.40;;
23720;SDS011;42950;52.134;5.578;2023-04-27T08:27:09;4.10;;;1.88;;
23720;SDS011;42950;52.134;5.578;2023-04-27T08:29:35;3.72;;;1.88;;
23720;SDS011;42950;52.134;5.578;2023-04-27T08:32:01;3.05;;;1.70;;
23720;SDS011;42950;52.134;5.578;2023-04-27T08:34:28;5.22;;;2.10;;
23720;SDS011;42950;52.134;5.578;2023-04-27T08:36:54;6.28;;;2.35;;
23720;SDS011;42950;52.134;5.578;2023-04-27T08:39:20;4.97;;;2.20;;
23720;SDS011;42950;52.134;5.578;2023-04-27T08:41:47;4.50;;;2.00;;
23720;SDS011;42950;52.134;5.578;2023-04-27T08:44:12;6.43;;;1.80;;
23720;SDS011;42950;52.134;5.578;2023-04-27T08:46:38;5.25;;;1.83;;
23720;SDS011;42950;52.134;5.578;2023-04-27T08:49:03;2.63;;;1.75;;
23720;SDS011;42950;52.134;5.578;2023-04-27T08:51:30;3.50;;;1.80;;
23720;SDS011;42950;52.134;5.578;2023-04-27T08:53:57;4.07;;;1.83;;
23720;SDS011;42950;52.134;5.578;2023-04-27T08:56:23;2.08;;;1.85;;
23720;SDS011;42950;52.134;5.578;2023-04-27T08:58:50;2.38;;;1.83;;
23720;SDS011;42950;52.134;5.578;2023-04-27T09:01:16;2.97;;;1.65;;
23720;SDS011;42950;52.134;5.578;2023-04-27T09:03:42;4.10;;;1.95;;
23720;SDS011;42950;52.134;5.578;2023-04-27T09:06:10;3.72;;;1.50;;
23720;SDS011;42950;52.134;5.578;2023-04-27T09:08:47;2.50;;;1.63;;
23720;SDS011;42950;52.134;5.578;2023-04-27T09:11:14;3.85;;;1.80;;
23720;SDS011;42950;52.134;5.578;2023-04-27T09:13:52;2.92;;;1.75;;
23720;SDS011;42950;52.134;5.578;2023-04-27T09:16:22;3.22;;;1.60;;
23720;SDS011;42950;52.134;5.578;2023-04-27T09:18:49;1.92;;;1.70;;
23720;SDS011;42950;52.134;5.578;2023-04-27T09:21:48;4.45;;;1.70;;
23720;SDS011;42950;52.134;5.578;2023-04-27T09:24:10;4.60;;;1.90;;
23720;SDS011;42950;52.134;5.578;2023-04-27T09:26:37;4.20;;;1.90;;
23720;SDS011;42950;52.134;5.578;2023-04-27T09:29:02;3.85;;;1.65;;
23720;SDS011;42950;52.134;5.578;2023-04-27T09:31:31;3.85;;;2.13;;
23720;SDS011;42950;52.134;5.578;2023-04-27T09:33:57;4.97;;;1.98;;
23720;SDS011;42950;52.134;5.578;2023-04-27T09:36:23;5.15;;;2.20;;
23720;SDS011;42950;52.134;5.578;2023-04-27T09:38:50;3.17;;;2.00;;
23720;SDS011;42950;52.134;5.578;2023-04-27T09:41:16;3.65;;;2.28;;
23720;SDS011;42950;52.134;5.578;2023-04-27T09:43:43;4.00;;;1.98;;
23720;SDS011;42950;52.134;5.578;2023-04-27T09:46:12;5.20;;;2.10;;
23720;SDS011;42950;52.134;5.578;2023-04-27T09:48:38;2.97;;;2.28;;
23720;SDS011;42950;52.134;5.578;2023-04-27T09:51:04;7.43;;;2.47;;
23720;SDS011;42950;52.134;5.578;2023-04-27T09:53:43;4.32;;;1.95;;
23720;SDS011;42950;52.134;5.578;2023-04-27T10:01:52;3.75;;;2.42;;
23720;SDS011;42950;52.134;5.578;2023-04-27T10:04:25;5.55;;;2.42;;
23720;SDS011;42950;52.134;5.578;2023-04-27T10:07:26;2.92;;;2.53;;
23720;SDS011;42950;52.134;5.578;2023-04-27T10:09:52;6.72;;;2.50;;
23720;SDS011;42950;52.134;5.578;2023-04-27T10:12:19;5.90;;;2.33;;
23720;SDS011;42950;52.134;5.578;2023-04-27T10:14:53;6.15;;;2.88;;
23720;SDS011;42950;52.134;5.578;2023-04-27T10:17:24;4.90;;;3.22;;
23720;SDS011;42950;52.134;5.578;2023-04-27T10:19:54;3.95;;;2.97;;
23720;SDS011;42950;52.134;5.578;2023-04-27T10:22:39;4.90;;;2.70;;
23720;SDS011;42950;52.134;5.578;2023-04-27T10:25:19;6.68;;;2.80;;
23720;SDS011;42950;52.134;5.578;2023-04-27T10:30:25;5.72;;;2.70;;
23720;SDS011;42950;52.134;5.578;2023-04-27T10:32:56;4.30;;;2.33;;
23720;SDS011;42950;52.134;5.578;2023-04-27T10:35:39;4.88;;;2.78;;
23720;SDS011;42950;52.134;5.578;2023-04-27T10:40:38;3.42;;;2.47;;
23720;SDS011;42950;52.134;5.578;2023-04-27T10:43:12;6.00;;;2.85;;
23720;SDS011;42950;52.134;5.578;2023-04-27T10:45:40;4.68;;;2.40;;
23720;SDS011;42950;52.134;5.578;2023-04-27T10:48:07;3.85;;;2.13;;
23720;SDS011;42950;52.134;5.578;2023-04-27T10:50:33;5.22;;;3.40;;
23720;SDS011;42950;52.134;5.578;2023-04-27T10:53:05;4.45;;;3.00;;
23720;SDS011;42950;52.134;5.578;2023-04-27T10:55:32;4.68;;;2.60;;
23720;SDS011;42950;52.134;5.578;2023-04-27T10:57:59;19.23;;;11.65;;
23720;SDS011;42950;52.134;5.578;2023-04-27T11:00:28;12.35;;;7.60;;
23720;SDS011;42950;52.134;5.578;2023-04-27T11:02:55;4.65;;;2.80;;
23720;SDS011;42950;52.134;5.578;2023-04-27T11:05:23;13.68;;;10.05;;
23720;SDS011;42950;52.134;5.578;2023-04-27T11:08:02;9.27;;;6.18;;
23720;SDS011;42950;52.134;5.578;2023-04-27T11:10:32;8.02;;;4.53;;
23720;SDS011;42950;52.134;5.578;2023-04-27T11:13:05;5.85;;;2.80;;
23720;SDS011;42950;52.134;5.578;2023-04-27T11:15:50;5.82;;;3.80;;
23720;SDS011;42950;52.134;5.578;2023-04-27T11:18:24;4.60;;;3.38;;
23720;SDS011;42950;52.134;5.578;2023-04-27T11:20:51;5.30;;;3.40;;
23720;SDS011;42950;52.134;5.578;2023-04-27T11:23:25;5.68;;;2.90;;
23720;SDS011;42950;52.134;5.578;2023-04-27T11:25:52;4.63;;;3.35;;
23720;SDS011;42950;52.134;5.578;2023-04-27T11:28:19;3.88;;;2.78;;
23720;SDS011;42950;52.134;5.578;2023-04-27T11:30:45;5.28;;;3.13;;
23720;SDS011;42950;52.134;5.578;2023-04-27T11:33:13;3.03;;;2.80;;
23720;SDS011;42950;52.134;5.578;2023-04-27T11:35:38;4.63;;;2.97;;
23720;SDS011;42950;52.134;5.578;2023-04-27T11:38:04;4.53;;;2.90;;
23720;SDS011;42950;52.134;5.578;2023-04-27T11:40:30;3.20;;;2.88;;
23720;SDS011;42950;52.134;5.578;2023-04-27T11:42:59;3.15;;;2.85;;
23720;SDS011;42950;52.134;5.578;2023-04-27T11:45:28;4.28;;;3.00;;
23720;SDS011;42950;52.134;5.578;2023-04-27T11:47:56;3.35;;;2.90;;
23720;SDS011;42950;52.134;5.578;2023-04-27T11:50:23;4.28;;;3.10;;
23720;SDS011;42950;52.134;5.578;2023-04-27T11:52:52;5.18;;;3.10;;
23720;SDS011;42950;52.134;5.578;2023-04-27T11:55:20;6.55;;;3.22;;
23720;SDS011;42950;52.134;5.578;2023-04-27T11:57:46;4.38;;;2.88;;
23720;SDS011;42950;52.134;5.578;2023-04-27T12:00:13;5.10;;;3.17;;
23720;SDS011;42950;52.134;5.578;2023-04-27T12:02:42;6.68;;;3.20;;
23720;SDS011;42950;52.134;5.578;2023-04-27T12:05:08;9.60;;;3.28;;
23720;SDS011;42950;52.134;5.578;2023-04-27T12:07:34;4.60;;;3.20;;
23720;SDS011;42950;52.134;5.578;2023-04-27T12:09:59;4.25;;;3.10;;
23720;SDS011;42950;52.134;5.578;2023-04-27T12:12:25;3.88;;;2.90;;
23720;SDS011;42950;52.134;5.578;2023-04-27T12:14:51;4.07;;;2.85;;
23720;SDS011;42950;52.134;5.578;2023-04-27T12:17:17;3.38;;;2.90;;
23720;SDS011;42950;52.134;5.578;2023-04-27T12:19:43;7.25;;;3.20;;
23720;SDS011;42950;52.134;5.578;2023-04-27T12:22:09;3.60;;;3.10;;
23720;SDS011;42950;52.134;5.578;2023-04-27T12:24:35;3.60;;;3.00;;
23720;SDS011;42950;52.134;5.578;2023-04-27T12:27:01;6.07;;;3.50;;
23720;SDS011;42950;52.134;5.578;2023-04-27T12:29:27;4.78;;;3.40;;
23720;SDS011;42950;52.134;5.578;2023-04-27T12:31:53;3.88;;;3.50;;
23720;SDS011;42950;52.134;5.578;2023-04-27T12:34:19;5.30;;;3.17;;
23720;SDS011;42950;52.134;5.578;2023-04-27T12:36:44;4.30;;;3.47;;
23720;SDS011;42950;52.134;5.578;2023-04-27T12:39:14;4.00;;;3.60;;
23720;SDS011;42950;52.134;5.578;2023-04-27T12:41:42;4.50;;;3.50;;
23720;SDS011;42950;52.134;5.578;2023-04-27T12:44:08;5.28;;;3.17;;
23720;SDS011;42950;52.134;5.578;2023-04-27T12:46:34;3.67;;;2.85;;
23720;SDS011;42950;52.134;5.578;2023-04-27T12:49:00;4.35;;;2.95;;
23720;SDS011;42950;52.134;5.578;2023-04-27T12:51:26;4.82;;;3.08;;
23720;SDS011;42950;52.134;5.578;2023-04-27T12:53:54;4.32;;;3.50;;
23720;SDS011;42950;52.134;5.578;2023-04-27T12:56:20;5.88;;;3.38;;
23720;SDS011;42950;52.134;5.578;2023-04-27T12:58:46;6.18;;;3.28;;
23720;SDS011;42950;52.134;5.578;2023-04-27T13:01:11;4.88;;;2.97;;
23720;SDS011;42950;52.134;5.578;2023-04-27T13:03:40;3.95;;;3.00;;
23720;SDS011;42950;52.134;5.578;2023-04-27T13:06:06;5.35;;;2.47;;
23720;SDS011;42950;52.134;5.578;2023-04-27T13:08:32;6.38;;;3.13;;
23720;SDS011;42950;52.134;5.578;2023-04-27T13:10:58;3.50;;;2.97;;
23720;SDS011;42950;52.134;5.578;2023-04-27T13:13:24;6.38;;;2.80;;
23720;SDS011;42950;52.134;5.578;2023-04-27T13:15:50;3.25;;;2.80;;
23720;SDS011;42950;52.134;5.578;2023-04-27T13:18:16;3.67;;;2.88;;
23720;SDS011;42950;52.134;5.578;2023-04-27T13:20:42;3.13;;;2.47;;
23720;SDS011;42950;52.134;5.578;2023-04-27T13:23:08;4.22;;;2.60;;
23720;SDS011;42950;52.134;5.578;2023-04-27T13:25:33;4.32;;;2.70;;
23720;SDS011;42950;52.134;5.578;2023-04-27T13:27:59;2.90;;;2.35;;
23720;SDS011;42950;52.134;5.578;2023-04-27T13:30:25;3.55;;;2.40;;
23720;SDS011;42950;52.134;5.578;2023-04-27T13:32:51;4.10;;;2.45;;
23720;SDS011;42950;52.134;5.578;2023-04-27T13:35:17;4.75;;;2.55;;
23720;SDS011;42950;52.134;5.578;2023-04-27T13:37:43;3.75;;;2.72;;
23720;SDS011;42950;52.134;5.578;2023-04-27T13:40:09;5.80;;;2.60;;
23720;SDS011;42950;52.134;5.578;2023-04-27T13:42:35;4.15;;;3.00;;
23720;SDS011;42950;52.134;5.578;2023-04-27T13:45:02;6.35;;;2.97;;
23720;SDS011;42950;52.134;5.578;2023-04-27T13:47:28;3.38;;;2.67;;
23720;SDS011;42950;52.134;5.578;2023-04-27T13:50:01;4.88;;;2.80;;
23720;SDS011;42950;52.134;5.578;2023-04-27T13:52:28;4.40;;;2.70;;
23720;SDS011;42950;52.134;5.578;2023-04-27T13:54:54;5.22;;;3.03;;
23720;SDS011;42950;52.134;5.578;2023-04-27T13:57:20;4.82;;;2.70;;
23720;SDS011;42950;52.134;5.578;2023-04-27T13:59:45;3.35;;;2.58;;
23720;SDS011;42950;52.134;5.578;2023-04-27T14:02:11;3.00;;;2.50;;
23720;SDS011;42950;52.134;5.578;2023-04-27T14:04:37;4.20;;;2.85;;
23720;SDS011;42950;52.134;5.578;2023-04-27T14:07:03;4.93;;;3.20;;
23720;SDS011;42950;52.134;5.578;2023-04-27T14:09:28;3.58;;;2.75;;
23720;SDS011;42950;52.134;5.578;2023-04-27T14:11:54;3.50;;;2.40;;
23720;SDS011;42950;52.134;5.578;2023-04-27T14:14:20;3.05;;;2.30;;
23720;SDS011;42950;52.134;5.578;2023-04-27T14:16:46;4.10;;;2.53;;
23720;SDS011;42950;52.134;5.578;2023-04-27T14:19:12;3.95;;;2.72;;
23720;SDS011;42950;52.134;5.578;2023-04-27T14:21:40;4.03;;;2.30;;
23720;SDS011;42950;52.134;5.578;2023-04-27T14:24:06;4.75;;;2.10;;
23720;SDS011;42950;52.134;5.578;2023-04-27T14:26:31;2.92;;;2.22;;
23720;SDS011;42950;52.134;5.578;2023-04-27T14:28:57;2.90;;;2.60;;
23720;SDS011;42950;52.134;5.578;2023-04-27T14:31:22;4.13;;;2.40;;
23720;SDS011;42950;52.134;5.578;2023-04-27T14:33:49;3.85;;;2.35;;
23720;SDS011;42950;52.134;5.578;2023-04-27T14:36:14;5.03;;;2.55;;
23720;SDS011;42950;52.134;5.578;2023-04-27T14:38:42;3.15;;;2.17;;
23720;SDS011;42950;52.134;5.578;2023-04-27T14:41:08;3.15;;;2.13;;
23720;SDS011;42950;52.134;5.578;2023-04-27T14:43:33;2.45;;;1.83;;
23720;SDS011;42950;52.134;5.578;2023-04-27T14:45:59;4.90;;;2.25;;
23720;SDS011;42950;52.134;5.578;2023-04-27T14:48:25;2.17;;;1.98;;
23720;SDS011;42950;52.134;5.578;2023-04-27T14:50:51;3.20;;;2.38;;
23720;SDS011;42950;52.134;5.578;2023-04-27T14:53:17;3.30;;;2.10;;